Portada
METAR-TAF:

METAR-TAF

Aeropuertos :

Aeropuerto de Saint-Étienne - Bouthéon

Saint-Etienne, Francia

latitud: 45-32N, longitud: 004-18E, altitud: 404 m

Observación

El informe se hizo hace 30 minutos, a las 11:30 UTC
Viento 4 kt del sur, variando entre sureste y oeste-suroeste
Temperatura 6°C
Humedad 93%
Presión 1011 hPa
Visibilidad: 6000 m
Cielo cubierto a una altura de 500 ft

METAR: LFMH 211130Z AUTO 18004KT 140V250 6000 OVC005 06/05 Q1011

Hora: 13:00 (12:00 UTC)

Pronóstico

El informe se hizo hace 4 horas y 0 minutos, a las 08:00 UTC
Pronóstico válido del 21 a las 09 UTC al 22 a las 09 UTC
Viento kt del norte
Visibilidad: 8000 m
Cielo cubierto a una altura de 700 ft
Probabilidad 40% :
Temporalmente
del 21 a las 19 UTC al 22 a las 09 UTC
Visibilidad: 0800 m
niebla

TAF: LFMH 210800Z 2109/2209 00000KT 8000 OVC007 PROB40 TEMPO 2119/2209 0800 FG VV///

Observaciones y pronósticos meteorológicos de más de 4000 aeropuertos (mensajes METAR y TAF).

Los puntos amarillos y rojos representan las estaciones disponibles.

Ponga el ratón en el punto deseado para ver el nombre de la estación.

Haga clic para ver las observaciones y los pronósticos meteorológicos.

Para cambiar el mapa : haga clic en los botones verdes con una cruz de color negro para hacer un zoom, en el botón verde con un guión para alejar o en las flechas verdes para mapas adyacentes.


METAR-TAF: